createdAt,value
2018-03-14T00:00:27.482Z,8.30
2018-03-14T00:03:02.495Z,8.30
2018-03-14T00:05:36.306Z,8.30
2018-03-14T00:08:10.784Z,8.50
2018-03-14T00:10:44.604Z,8.50
2018-03-14T00:13:18.469Z,8.50
2018-03-14T00:15:54.065Z,8.60
2018-03-14T00:18:22.307Z,8.50
2018-03-14T00:20:56.948Z,8.60
2018-03-14T00:23:30.633Z,8.60
2018-03-14T00:26:04.385Z,8.60
2018-03-14T00:28:38.128Z,8.70
2018-03-14T00:31:12.537Z,8.80
2018-03-14T00:33:47.284Z,8.70
2018-03-14T00:36:21.097Z,8.70
2018-03-14T00:38:49.355Z,8.70
2018-03-14T00:41:17.603Z,8.70
2018-03-14T00:43:45.868Z,8.80
2018-03-14T00:46:14.881Z,8.70
2018-03-14T00:48:43.195Z,8.70
2018-03-14T00:51:11.447Z,8.70
2018-03-14T00:53:39.745Z,8.70
2018-03-14T00:56:07.983Z,8.70
2018-03-14T00:58:36.250Z,8.70
2018-03-14T01:01:04.503Z,8.70
2018-03-14T01:03:33.535Z,8.60
2018-03-14T01:06:01.780Z,8.60
2018-03-14T01:08:30.816Z,8.70
2018-03-14T01:10:59.083Z,8.70
2018-03-14T01:13:27.387Z,8.70
2018-03-14T01:15:55.935Z,8.70
2018-03-14T01:18:24.185Z,8.60
2018-03-14T01:20:53.200Z,8.70
2018-03-14T01:23:21.440Z,8.60
2018-03-14T01:25:49.703Z,8.60
2018-03-14T01:28:17.948Z,8.70
2018-03-14T01:30:46.216Z,8.70
2018-03-14T01:33:14.460Z,8.60
2018-03-14T01:35:43.476Z,8.60
2018-03-14T01:38:11.734Z,8.60
2018-03-14T01:40:40.876Z,8.70
2018-03-14T01:43:09.112Z,8.60
2018-03-14T01:45:37.381Z,8.70
2018-03-14T01:48:06.387Z,8.70
2018-03-14T01:50:34.650Z,8.70
2018-03-14T01:53:14.667Z,8.70
2018-03-14T01:55:42.988Z,8.70
2018-03-14T01:58:11.243Z,8.60
2018-03-14T02:00:40.268Z,8.60
2018-03-14T02:03:08.521Z,8.60
2018-03-14T02:05:37.549Z,8.60
2018-03-14T02:08:05.794Z,8.50
2018-03-14T02:13:09.325Z,8.60
2018-03-14T02:15:37.569Z,8.60
2018-03-14T02:18:06.607Z,8.50
2018-03-14T02:20:35.647Z,8.50
2018-03-14T02:23:03.965Z,8.30
2018-03-14T02:25:32.222Z,8.40
2018-03-14T02:28:01.231Z,8.50
2018-03-14T02:30:29.492Z,8.50
2018-03-14T02:32:58.522Z,8.30
2018-03-14T02:35:26.765Z,8.30
2018-03-14T02:37:55.791Z,8.50
2018-03-14T02:40:24.035Z,8.50
2018-03-14T02:42:53.044Z,8.50
2018-03-14T02:45:21.339Z,8.50
2018-03-14T02:47:49.576Z,8.40
2018-03-14T02:50:18.596Z,8.50
2018-03-14T02:52:46.901Z,8.50
2018-03-14T02:55:15.147Z,8.40
2018-03-14T02:57:43.387Z,8.50
2018-03-14T03:00:12.420Z,8.30
2018-03-14T03:02:40.664Z,8.30
2018-03-14T03:05:09.677Z,8.40
2018-03-14T03:07:37.925Z,8.40
2018-03-14T03:10:06.181Z,8.40
2018-03-14T03:12:34.418Z,8.40
2018-03-14T03:15:02.684Z,8.40
2018-03-14T03:17:30.973Z,8.40
2018-03-14T03:19:59.220Z,8.30
2018-03-14T03:22:28.265Z,8.30
2018-03-14T03:24:56.536Z,8.30
2018-03-14T03:27:24.789Z,8.30
2018-03-14T03:29:53.105Z,8.40
2018-03-14T03:32:21.389Z,8.30
2018-03-14T03:34:49.655Z,8.40
2018-03-14T03:37:17.922Z,8.40
2018-03-14T03:39:46.273Z,8.40
2018-03-14T03:42:15.145Z,8.40
2018-03-14T03:44:43.444Z,8.40
2018-03-14T03:47:11.820Z,8.40
2018-03-14T03:49:40.155Z,8.40
2018-03-14T03:52:09.203Z,8.30
2018-03-14T03:54:37.484Z,8.20
2018-03-14T03:57:05.757Z,8.30
2018-03-14T03:59:34.028Z,8.30
2018-03-14T04:02:02.301Z,8.30
2018-03-14T04:04:30.600Z,8.40
2018-03-14T04:06:58.880Z,8.30
2018-03-14T04:09:27.139Z,8.40
2018-03-14T04:11:55.475Z,8.30
2018-03-14T04:14:23.820Z,8.20
2018-03-14T04:16:52.109Z,8.30
2018-03-14T04:19:20.377Z,8.20
2018-03-14T04:21:48.650Z,8.20
2018-03-14T04:24:16.941Z,8.30
2018-03-14T04:26:45.212Z,8.20
2018-03-14T04:29:13.475Z,8.20
2018-03-14T04:31:42.503Z,8.20
2018-03-14T04:34:11.543Z,8.20
2018-03-14T04:36:39.781Z,8.10
2018-03-14T04:39:08.049Z,8.20
2018-03-14T04:41:37.077Z,8.10
2018-03-14T04:44:05.347Z,8.10
2018-03-14T04:46:33.598Z,8.10
2018-03-14T04:49:01.878Z,8.10
2018-03-14T04:51:30.923Z,8.20
2018-03-14T04:56:33.837Z,8.20
2018-03-14T04:59:02.146Z,8.30
2018-03-14T05:01:30.430Z,8.20
2018-03-14T05:03:58.710Z,8.10
2018-03-14T05:06:26.977Z,8.10
2018-03-14T05:08:55.231Z,8.20
2018-03-14T05:11:23.492Z,8.20
2018-03-14T05:13:51.789Z,8.30
2018-03-14T05:16:20.048Z,8.20
2018-03-14T05:18:48.341Z,8.20
2018-03-14T05:21:16.596Z,8.20
2018-03-14T05:23:44.871Z,8.30
2018-03-14T05:26:13.138Z,8.30
2018-03-14T05:28:41.379Z,8.20
2018-03-14T05:31:09.632Z,8.20
2018-03-14T05:33:38.662Z,8.20
2018-03-14T05:36:06.937Z,8.20
2018-03-14T05:38:35.185Z,8.20
2018-03-14T05:41:03.455Z,8.10
2018-03-14T05:43:32.507Z,8.10
2018-03-14T05:46:00.752Z,8.10
2018-03-14T05:48:29.007Z,8.00
2018-03-14T05:50:57.295Z,8.00
2018-03-14T05:53:25.559Z,8.00
2018-03-14T05:55:53.849Z,8.00
2018-03-14T05:58:22.900Z,7.90
2018-03-14T06:00:51.200Z,7.90
2018-03-14T06:03:19.487Z,8.00
2018-03-14T06:05:48.584Z,8.00
2018-03-14T06:08:16.838Z,7.90
2018-03-14T06:10:45.896Z,8.00
2018-03-14T06:13:14.159Z,8.00
2018-03-14T06:15:42.439Z,8.00
2018-03-14T06:18:10.684Z,8.00
2018-03-14T06:20:38.992Z,8.00
2018-03-14T06:23:07.269Z,8.00
2018-03-14T06:25:35.660Z,8.00
2018-03-14T06:28:03.933Z,8.00
2018-03-14T06:30:32.263Z,8.10
2018-03-14T06:33:01.367Z,8.20
2018-03-14T06:35:29.660Z,8.20
2018-03-14T06:37:57.941Z,8.30
2018-03-14T06:40:26.239Z,8.20
2018-03-14T06:42:54.512Z,8.30
2018-03-14T06:45:22.762Z,8.40
2018-03-14T06:47:51.043Z,8.50
2018-03-14T06:50:19.331Z,8.60
2018-03-14T06:52:47.607Z,8.80
2018-03-14T06:55:15.870Z,8.70
2018-03-14T06:57:44.194Z,8.60
2018-03-14T07:00:24.413Z,8.60
2018-03-14T07:03:04.635Z,8.70
2018-03-14T07:05:44.647Z,8.80
2018-03-14T07:08:12.937Z,8.80
2018-03-14T07:10:41.189Z,8.90
2018-03-14T07:13:09.478Z,9.00
2018-03-14T07:15:37.748Z,8.90
2018-03-14T07:18:05.998Z,9.00
2018-03-14T07:20:34.254Z,9.00
2018-03-14T07:23:02.508Z,9.20
2018-03-14T07:25:31.553Z,9.20
2018-03-14T07:27:59.829Z,9.20
2018-03-14T07:30:28.079Z,9.10
2018-03-14T07:32:56.599Z,9.30
2018-03-14T07:35:24.895Z,9.40
2018-03-14T07:37:53.917Z,9.20
2018-03-14T07:40:22.184Z,9.20
2018-03-14T07:42:50.503Z,9.30
2018-03-14T07:45:18.759Z,9.30
2018-03-14T07:47:47.036Z,9.30
2018-03-14T07:50:15.290Z,9.30
2018-03-14T07:52:43.626Z,9.20
2018-03-14T07:55:11.855Z,9.20
2018-03-14T07:57:40.125Z,9.30
2018-03-14T08:00:09.148Z,9.40
2018-03-14T08:02:37.421Z,9.40
2018-03-14T08:05:05.684Z,9.50
2018-03-14T08:07:33.957Z,9.40
2018-03-14T08:10:02.211Z,9.60
2018-03-14T08:12:31.248Z,9.80
2018-03-14T08:14:59.491Z,9.70
2018-03-14T08:17:27.817Z,9.80
2018-03-14T08:19:56.093Z,9.70
2018-03-14T08:22:24.365Z,9.90
2018-03-14T08:24:52.617Z,10.00
2018-03-14T08:27:20.874Z,10.10
2018-03-14T08:29:49.120Z,9.90
2018-03-14T08:32:17.387Z,9.90
2018-03-14T08:34:46.415Z,10.10
2018-03-14T08:37:14.706Z,10.10
2018-03-14T08:39:42.972Z,10.40
2018-03-14T08:42:11.230Z,10.60
2018-03-14T08:44:40.259Z,10.80
2018-03-14T08:47:08.514Z,10.80
2018-03-14T08:49:37.577Z,10.60
2018-03-14T08:52:05.828Z,10.60
2018-03-14T08:54:34.110Z,10.50
2018-03-14T08:57:02.374Z,10.60
2018-03-14T08:59:30.761Z,10.70
2018-03-14T09:01:59.772Z,11.00
2018-03-14T09:04:28.021Z,11.00
2018-03-14T09:06:56.284Z,11.30
2018-03-14T09:09:24.535Z,11.50
2018-03-14T09:11:52.795Z,11.70
2018-03-14T09:14:21.856Z,11.60
2018-03-14T09:16:50.133Z,11.60
2018-03-14T09:19:18.422Z,11.80
2018-03-14T09:21:46.684Z,11.50
2018-03-14T09:24:14.968Z,11.30
2018-03-14T09:26:43.193Z,11.00
2018-03-14T09:29:11.499Z,10.70
2018-03-14T09:31:39.750Z,10.70
2018-03-14T09:34:08.028Z,10.90
2018-03-14T09:36:36.316Z,11.00
2018-03-14T09:39:04.589Z,11.20
2018-03-14T09:41:32.866Z,11.10
2018-03-14T09:44:01.152Z,11.10
2018-03-14T09:46:29.413Z,10.90
2018-03-14T09:48:57.751Z,10.70
2018-03-14T09:51:26.005Z,10.60
2018-03-14T09:53:54.272Z,10.70
2018-03-14T09:56:22.573Z,10.80
2018-03-14T09:58:50.847Z,11.00
2018-03-14T10:01:19.165Z,11.20
2018-03-14T10:03:47.432Z,11.20
2018-03-14T10:06:16.548Z,11.00
2018-03-14T10:08:44.880Z,11.00
2018-03-14T10:11:13.167Z,11.20
2018-03-14T10:13:42.186Z,11.70
2018-03-14T10:16:10.459Z,11.70
2018-03-14T10:18:38.724Z,11.90
2018-03-14T10:21:07.780Z,12.20
2018-03-14T10:23:36.057Z,12.20
2018-03-14T10:26:04.801Z,12.50
2018-03-14T10:28:33.066Z,12.70
2018-03-14T10:31:01.413Z,13.00
2018-03-14T10:33:29.699Z,13.30
2018-03-14T10:35:57.964Z,13.50
2018-03-14T10:38:26.251Z,13.40
2018-03-14T10:40:54.601Z,13.00
2018-03-14T10:43:22.806Z,12.70
2018-03-14T10:45:51.080Z,12.80
2018-03-14T10:48:19.377Z,13.10
2018-03-14T10:50:47.664Z,13.20
2018-03-14T10:53:15.944Z,13.20
2018-03-14T10:55:44.324Z,12.90
2018-03-14T10:58:12.602Z,12.90
2018-03-14T11:00:46.549Z,13.00
2018-03-14T11:03:17.808Z,12.90
2018-03-14T11:05:46.191Z,12.70
2018-03-14T11:08:14.502Z,12.60
2018-03-14T11:10:42.811Z,12.40
2018-03-14T11:13:12.384Z,12.40
2018-03-14T11:15:40.738Z,12.40
2018-03-14T11:18:10.902Z,12.10
2018-03-14T11:20:40.147Z,12.10
2018-03-14T11:23:08.414Z,12.00
2018-03-14T11:25:36.718Z,12.00
2018-03-14T11:28:05.014Z,11.90
2018-03-14T11:30:33.239Z,11.90
2018-03-14T11:33:01.612Z,11.90
2018-03-14T11:35:29.957Z,11.90
2018-03-14T11:37:58.247Z,12.10
2018-03-14T11:40:26.532Z,12.20
2018-03-14T11:42:54.820Z,12.50
2018-03-14T11:45:23.119Z,12.70
2018-03-14T11:47:51.420Z,12.60
2018-03-14T11:50:19.728Z,12.70
2018-03-14T11:52:48.012Z,12.60
2018-03-14T11:55:17.059Z,12.50
2018-03-14T11:57:45.343Z,12.60
2018-03-14T12:00:13.617Z,12.70
2018-03-14T12:02:42.556Z,12.70
2018-03-14T12:05:11.772Z,12.60
2018-03-14T12:07:40.094Z,12.70
2018-03-14T12:10:08.379Z,12.80
2018-03-14T12:12:36.743Z,13.10
2018-03-14T12:15:05.799Z,13.30
2018-03-14T12:17:34.085Z,13.30
2018-03-14T12:20:02.396Z,13.40
2018-03-14T12:22:32.668Z,13.00
2018-03-14T12:25:01.114Z,12.80
2018-03-14T12:27:29.380Z,12.60
2018-03-14T12:32:30.575Z,12.40
2018-03-14T12:34:58.869Z,12.30
2018-03-14T12:37:27.135Z,12.20
2018-03-14T12:39:55.496Z,12.20
2018-03-14T12:42:23.765Z,12.40
2018-03-14T12:44:52.022Z,12.70
2018-03-14T12:47:20.331Z,12.80
2018-03-14T12:49:48.626Z,13.00
2018-03-14T12:52:16.884Z,12.80
2018-03-14T12:54:45.135Z,12.50
2018-03-14T12:57:13.415Z,12.50
2018-03-14T12:59:41.682Z,12.70
2018-03-14T13:02:09.957Z,12.70
2018-03-14T13:04:38.220Z,12.70
2018-03-14T13:07:07.308Z,12.90
2018-03-14T13:09:35.594Z,12.90
2018-03-14T13:12:03.877Z,13.00
2018-03-14T13:14:32.129Z,13.10
2018-03-14T13:17:00.415Z,13.20
2018-03-14T13:19:29.461Z,13.30
2018-03-14T13:21:58.442Z,13.20
2018-03-14T13:24:26.773Z,13.30
2018-03-14T13:26:55.067Z,13.30
2018-03-14T13:29:23.342Z,13.40
2018-03-14T13:31:51.652Z,13.40
2018-03-14T13:34:20.620Z,13.50
2018-03-14T13:36:49.065Z,13.60
2018-03-14T13:39:17.300Z,13.50
2018-03-14T13:41:45.575Z,13.10
2018-03-14T13:44:13.883Z,13.00
2018-03-14T13:46:42.136Z,12.90
2018-03-14T13:49:10.407Z,12.80
2018-03-14T13:51:38.656Z,12.60
2018-03-14T13:54:06.927Z,12.40
2018-03-14T13:56:35.962Z,12.30
2018-03-14T13:59:04.274Z,12.30
2018-03-14T14:01:32.548Z,12.20
2018-03-14T14:04:00.873Z,12.20
2018-03-14T14:06:29.871Z,12.20
2018-03-14T14:08:58.156Z,12.20
2018-03-14T14:11:26.440Z,12.10
2018-03-14T14:13:54.704Z,12.20
2018-03-14T14:16:22.962Z,12.30
2018-03-14T14:18:51.248Z,12.40
2018-03-14T14:21:19.556Z,12.50
2018-03-14T14:23:47.838Z,12.50
2018-03-14T14:26:16.918Z,12.70
2018-03-14T14:28:45.190Z,12.70
2018-03-14T14:31:13.499Z,12.80
2018-03-14T14:33:41.814Z,12.90
2018-03-14T14:36:10.093Z,12.90
2018-03-14T14:38:38.341Z,12.90
2018-03-14T14:41:07.402Z,12.90
2018-03-14T14:43:35.749Z,12.90
2018-03-14T14:46:04.066Z,12.90
2018-03-14T14:48:32.330Z,12.90
2018-03-14T14:51:00.601Z,12.90
2018-03-14T14:53:28.984Z,12.90
2018-03-14T14:55:57.225Z,12.90
2018-03-14T14:58:25.491Z,12.80
2018-03-14T15:00:53.760Z,12.80
2018-03-14T15:03:23.574Z,12.90
2018-03-14T15:05:51.856Z,12.80
2018-03-14T15:08:20.111Z,12.80
2018-03-14T15:10:49.151Z,12.40
2018-03-14T15:13:17.463Z,12.40
2018-03-14T15:15:45.744Z,12.30
2018-03-14T15:18:14.015Z,12.20
2018-03-14T15:20:42.295Z,12.20
2018-03-14T15:23:10.605Z,12.20
2018-03-14T15:25:38.871Z,12.20
2018-03-14T15:28:07.938Z,12.30
2018-03-14T15:30:36.230Z,12.30
2018-03-14T15:33:04.539Z,12.30
2018-03-14T15:35:32.800Z,12.30
2018-03-14T15:38:01.103Z,12.40
2018-03-14T15:40:30.102Z,12.50
2018-03-14T15:42:58.407Z,12.70
2018-03-14T15:45:26.780Z,12.80
2018-03-14T15:47:55.064Z,12.90
2018-03-14T15:50:23.304Z,13.00
2018-03-14T15:52:51.584Z,13.00
2018-03-14T15:55:19.855Z,13.00
2018-03-14T15:57:48.121Z,13.00
2018-03-14T16:00:16.370Z,13.00
2018-03-14T16:02:45.416Z,12.70
2018-03-14T16:05:13.674Z,12.70
2018-03-14T16:07:41.943Z,12.60
2018-03-14T16:10:10.206Z,12.50
2018-03-14T16:12:38.472Z,12.40
2018-03-14T16:15:07.496Z,12.30
2018-03-14T16:17:36.657Z,12.30
2018-03-14T16:20:05.698Z,12.20
2018-03-14T16:22:33.987Z,12.20
2018-03-14T16:25:02.253Z,12.20
2018-03-14T16:27:30.551Z,12.10
2018-03-14T16:29:58.781Z,12.10
2018-03-14T16:32:27.123Z,12.10
2018-03-14T16:34:55.378Z,12.00
2018-03-14T16:37:23.688Z,12.00
2018-03-14T16:39:52.234Z,11.90
2018-03-14T16:42:20.524Z,11.90
2018-03-14T16:44:48.773Z,11.80
2018-03-14T16:47:17.063Z,11.80
2018-03-14T16:49:45.386Z,11.80
2018-03-14T16:52:13.728Z,11.80
2018-03-14T16:54:42.020Z,11.70
2018-03-14T16:57:10.306Z,11.70
2018-03-14T16:59:38.566Z,11.70
2018-03-14T17:02:06.846Z,11.70
2018-03-14T17:04:35.152Z,11.60
2018-03-14T17:07:03.424Z,11.50
2018-03-14T17:09:31.707Z,11.50
2018-03-14T17:11:59.955Z,11.50
2018-03-14T17:14:28.988Z,11.40
2018-03-14T17:16:57.300Z,11.40
2018-03-14T17:19:25.590Z,11.40
2018-03-14T17:21:53.898Z,11.30
2018-03-14T17:24:22.183Z,11.30
2018-03-14T17:26:50.492Z,11.30
2018-03-14T17:29:18.769Z,11.30
2018-03-14T17:31:47.066Z,11.20
2018-03-14T17:34:15.500Z,11.20
2018-03-14T17:36:43.788Z,11.20
2018-03-14T17:39:12.129Z,11.10
2018-03-14T17:41:41.774Z,11.10
2018-03-14T17:44:10.032Z,11.00
2018-03-14T17:46:38.340Z,11.10
2018-03-14T17:49:06.572Z,10.90
2018-03-14T17:51:35.653Z,10.90
2018-03-14T17:54:04.696Z,10.90
2018-03-14T17:56:32.958Z,10.90
2018-03-14T17:59:01.249Z,10.90
2018-03-14T18:01:29.531Z,10.80
2018-03-14T18:03:57.785Z,10.80
2018-03-14T18:06:26.088Z,10.70
2018-03-14T18:08:54.357Z,10.70
2018-03-14T18:11:22.702Z,10.60
2018-03-14T18:13:51.001Z,10.60
2018-03-14T18:16:19.251Z,10.60
2018-03-14T18:18:48.283Z,10.70
2018-03-14T18:21:16.581Z,10.70
2018-03-14T18:23:44.848Z,10.90
2018-03-14T18:26:13.112Z,11.20
2018-03-14T18:28:41.402Z,11.30
2018-03-14T18:31:09.760Z,11.40
2018-03-14T18:33:38.008Z,11.40
2018-03-14T18:36:06.280Z,11.40
2018-03-14T18:38:34.575Z,11.40
2018-03-14T18:41:02.852Z,11.30
2018-03-14T18:43:31.128Z,11.30
2018-03-14T18:45:59.385Z,11.30
2018-03-14T18:48:27.768Z,11.20
2018-03-14T18:50:56.373Z,11.20
2018-03-14T18:53:24.626Z,11.10
2018-03-14T18:55:52.884Z,11.10
2018-03-14T18:58:21.247Z,10.90
2018-03-14T19:00:49.533Z,10.90
2018-03-14T19:03:17.817Z,10.80
2018-03-14T19:05:46.893Z,10.70
2018-03-14T19:08:15.180Z,10.70
2018-03-14T19:10:44.216Z,10.60
2018-03-14T19:13:12.491Z,10.60
2018-03-14T19:15:40.748Z,10.60
2018-03-14T19:18:09.767Z,10.50
2018-03-14T19:20:38.111Z,10.50
2018-03-14T19:23:07.127Z,10.40
2018-03-14T19:25:35.472Z,10.40
2018-03-14T19:28:06.904Z,10.40
2018-03-14T19:30:43.291Z,10.60
2018-03-14T19:33:11.630Z,10.60
2018-03-14T19:35:39.952Z,10.50
2018-03-14T19:38:09.022Z,10.20
2018-03-14T19:40:37.302Z,10.10
2018-03-14T19:43:05.553Z,10.10
2018-03-14T19:45:33.876Z,9.90
2018-03-14T19:48:02.912Z,9.90
2018-03-14T19:50:31.213Z,9.90
2018-03-14T19:52:59.699Z,9.80
2018-03-14T19:55:27.948Z,9.80
2018-03-14T19:57:56.271Z,9.80
2018-03-14T20:00:24.553Z,9.70
2018-03-14T20:02:52.866Z,9.70
2018-03-14T20:05:22.000Z,9.60
2018-03-14T20:07:51.260Z,9.60
2018-03-14T20:10:19.535Z,9.60
2018-03-14T20:12:47.838Z,9.50
2018-03-14T20:15:16.104Z,9.50
2018-03-14T20:17:44.405Z,9.50
2018-03-14T20:20:12.673Z,9.50
2018-03-14T20:22:40.939Z,9.40
2018-03-14T20:25:09.262Z,9.40
2018-03-14T20:27:38.352Z,9.30
2018-03-14T20:30:06.721Z,9.30
2018-03-14T20:32:35.000Z,9.40
2018-03-14T20:35:03.266Z,9.40
2018-03-14T20:37:31.633Z,9.40
2018-03-14T20:39:59.967Z,9.30
2018-03-14T20:42:29.029Z,9.30
2018-03-14T20:44:58.065Z,9.30
2018-03-14T20:47:26.408Z,9.30
2018-03-14T20:49:55.464Z,9.30
2018-03-14T20:52:23.763Z,9.20
2018-03-14T20:54:52.062Z,9.20
2018-03-14T20:57:20.386Z,9.30
2018-03-14T20:59:48.995Z,9.20
2018-03-14T21:02:17.344Z,9.20
2018-03-14T21:04:45.598Z,9.20
2018-03-14T21:07:14.193Z,9.20
2018-03-14T21:09:42.463Z,9.20
2018-03-14T21:12:10.726Z,9.10
2018-03-14T21:14:39.771Z,9.10
2018-03-14T21:17:08.065Z,9.00
2018-03-14T21:19:36.385Z,9.00
2018-03-14T21:22:04.642Z,9.00
2018-03-14T21:24:33.766Z,9.00
2018-03-14T21:27:02.026Z,8.90
2018-03-14T21:29:30.322Z,8.80
2018-03-14T21:31:58.730Z,8.90
2018-03-14T21:34:27.041Z,8.90
2018-03-14T21:36:56.111Z,8.80
2018-03-14T21:39:24.456Z,8.80
2018-03-14T21:41:52.740Z,8.90
2018-03-14T21:44:21.030Z,8.90
2018-03-14T21:46:49.540Z,8.90
2018-03-14T21:49:17.861Z,8.90
2018-03-14T21:51:51.080Z,8.90
2018-03-14T21:54:19.380Z,8.90
2018-03-14T21:56:47.651Z,8.90
2018-03-14T21:59:16.017Z,8.90
2018-03-14T22:01:45.467Z,8.80
2018-03-14T22:04:14.611Z,8.80
2018-03-14T22:06:42.963Z,8.80
2018-03-14T22:09:11.997Z,8.80
2018-03-14T22:11:40.416Z,8.70
2018-03-14T22:14:09.016Z,8.70
2018-03-14T22:16:37.304Z,8.70
2018-03-14T22:19:05.813Z,8.70
2018-03-14T22:21:34.263Z,8.70
2018-03-14T22:24:02.669Z,8.70
2018-03-14T22:26:31.812Z,8.60
2018-03-14T22:29:01.602Z,8.60
2018-03-14T22:31:29.865Z,8.60
2018-03-14T22:33:58.927Z,8.50
2018-03-14T22:36:27.239Z,8.50
2018-03-14T22:38:55.860Z,8.50
2018-03-14T22:41:24.221Z,8.30
2018-03-14T22:43:52.501Z,8.30
2018-03-14T22:46:21.229Z,8.30
2018-03-14T22:48:49.589Z,8.30
2018-03-14T22:51:18.600Z,8.40
2018-03-14T22:53:46.941Z,8.40
2018-03-14T22:56:15.381Z,8.40
2018-03-14T22:58:44.408Z,8.40
2018-03-14T23:01:12.689Z,8.40
2018-03-14T23:03:41.717Z,8.30
2018-03-14T23:06:10.090Z,8.30
2018-03-14T23:08:38.362Z,8.20
2018-03-14T23:11:06.842Z,8.20
2018-03-14T23:13:35.890Z,8.20
2018-03-14T23:16:04.201Z,8.20
2018-03-14T23:18:33.977Z,8.20
2018-03-14T23:21:02.264Z,8.10
2018-03-14T23:23:30.538Z,8.10
2018-03-14T23:25:59.611Z,8.10
2018-03-14T23:28:27.956Z,8.10
2018-03-14T23:30:56.295Z,8.10
2018-03-14T23:33:24.689Z,8.10
2018-03-14T23:35:53.833Z,8.00
2018-03-14T23:38:22.207Z,8.00
2018-03-14T23:40:51.418Z,8.00
2018-03-14T23:43:19.685Z,8.00
2018-03-14T23:45:48.786Z,8.00
2018-03-14T23:48:17.885Z,7.70
2018-03-14T23:50:46.134Z,7.60
2018-03-14T23:53:14.502Z,7.60
2018-03-14T23:55:42.742Z,7.50
2018-03-14T23:58:11.020Z,7.60
